Terminal Aerodrome Forecast
Issued by NWS

Home | Current Version | Previous Version | Text Only | Print | Product List | Glossary On
Versions: 1 2 3 4 5 6 7 8 9 10 11 12 13 14 15 16
000
FTUS41 KBTV 182337
TAFMSS
TAF
KMSS 182337Z 1900/1924 07008KT P6SM -RA OVC025
     FM190300 07007KT P6SM -RA OVC010
     FM190500 06007KT 4SM -RA BR OVC003
     FM191200 30013G21KT 5SM -RA BR OVC008
     FM191500 28015G27KT 2SM -SHSN BR OVC010
     FM191900 27019G31KT P6SM VCSH OVC025=

USA.gov is the U.S. government's official web portal to all federal, state and local government web resources and services.